createdAt,value
2023-06-04T00:00:13.438Z,74.00
2023-06-04T00:02:41.622Z,74.70
2023-06-04T00:05:09.665Z,75.10
2023-06-04T00:07:37.576Z,74.60
2023-06-04T00:10:06.322Z,74.50
2023-06-04T00:12:34.276Z,74.80
2023-06-04T00:15:02.374Z,74.70
2023-06-04T00:17:30.036Z,75.50
2023-06-04T00:19:57.816Z,75.60
2023-06-04T00:22:25.991Z,75.60
2023-06-04T00:24:53.690Z,76.10
2023-06-04T00:27:21.416Z,75.70
2023-06-04T00:29:49.101Z,76.20
2023-06-04T00:32:16.940Z,76.50
2023-06-04T00:34:44.677Z,75.30
2023-06-04T00:37:12.418Z,75.10
2023-06-04T00:39:40.091Z,75.70
2023-06-04T00:42:07.992Z,77.20
2023-06-04T00:44:37.481Z,76.80
2023-06-04T00:47:05.383Z,75.70
2023-06-04T00:49:33.034Z,75.50
2023-06-04T00:52:01.084Z,75.80
2023-06-04T00:54:30.122Z,75.10
2023-06-04T00:56:57.919Z,76.10
2023-06-04T00:59:25.736Z,77.20
2023-06-04T01:02:10.360Z,76.40
2023-06-04T01:04:45.166Z,76.30
2023-06-04T01:07:16.729Z,78.00
2023-06-04T01:09:46.298Z,77.30
2023-06-04T01:12:14.447Z,77.60
2023-06-04T01:14:42.946Z,77.80
2023-06-04T01:17:54.986Z,77.60
2023-06-04T01:20:25.435Z,78.70
2023-06-04T01:22:53.185Z,78.10
2023-06-04T01:25:38.584Z,78.10
2023-06-04T01:28:08.133Z,78.70
2023-06-04T01:30:44.312Z,78.60
2023-06-04T01:33:13.516Z,78.50
2023-06-04T01:35:41.564Z,78.30
2023-06-04T01:38:09.461Z,79.00
2023-06-04T01:40:37.368Z,79.70
2023-06-04T01:43:05.305Z,79.60
2023-06-04T01:45:33.074Z,79.00
2023-06-04T01:48:03.516Z,77.40
2023-06-04T01:50:31.928Z,76.30
2023-06-04T01:53:00.446Z,76.30
2023-06-04T01:55:30.816Z,76.30
2023-06-04T01:57:58.886Z,76.60
2023-06-04T02:00:27.789Z,76.10
2023-06-04T02:02:57.332Z,77.50
2023-06-04T02:05:25.392Z,77.00
2023-06-04T02:07:53.305Z,77.10
2023-06-04T02:10:21.744Z,77.00
2023-06-04T02:13:06.142Z,77.60
2023-06-04T02:15:34.025Z,77.00
2023-06-04T02:18:17.548Z,77.10
2023-06-04T02:20:46.688Z,76.00
2023-06-04T02:23:16.813Z,75.60
2023-06-04T02:25:47.734Z,76.00
2023-06-04T02:28:16.160Z,74.80
2023-06-04T02:30:46.864Z,74.80
2023-06-04T02:33:15.742Z,74.80
2023-06-04T02:35:43.718Z,75.20
2023-06-04T02:38:11.549Z,75.00
2023-06-04T02:40:40.115Z,75.90
2023-06-04T02:43:07.770Z,75.40
2023-06-04T02:45:35.634Z,76.10
2023-06-04T02:48:03.520Z,76.00
2023-06-04T02:50:31.201Z,75.70
2023-06-04T02:52:58.892Z,76.30
2023-06-04T02:55:26.651Z,77.30
2023-06-04T02:57:54.609Z,77.30
2023-06-04T03:00:22.382Z,77.60
2023-06-04T03:02:50.299Z,78.00
2023-06-04T03:05:19.558Z,77.10
2023-06-04T03:07:48.066Z,77.00
2023-06-04T03:10:17.774Z,76.90
2023-06-04T03:12:45.992Z,76.50
2023-06-04T03:15:13.782Z,76.60
2023-06-04T03:17:42.666Z,76.40
2023-06-04T03:20:10.640Z,75.20
2023-06-04T03:22:39.212Z,74.70
2023-06-04T03:25:07.424Z,74.70
2023-06-04T03:27:36.039Z,73.90
2023-06-04T03:30:06.166Z,73.70
2023-06-04T03:32:46.734Z,72.60
2023-06-04T03:35:15.787Z,72.70
2023-06-04T03:37:43.433Z,73.00
2023-06-04T03:40:11.656Z,73.20
2023-06-04T03:42:43.232Z,73.10
2023-06-04T03:45:12.644Z,74.60
2023-06-04T03:47:40.657Z,73.30
2023-06-04T03:50:09.882Z,74.20
2023-06-04T03:52:38.542Z,74.80
2023-06-04T03:55:08.348Z,73.70
2023-06-04T03:57:39.691Z,74.60
2023-06-04T04:00:10.379Z,73.60
2023-06-04T04:02:41.812Z,73.70
2023-06-04T04:05:16.266Z,72.60
2023-06-04T04:07:48.392Z,73.40
2023-06-04T04:10:19.091Z,74.30
2023-06-04T04:12:46.849Z,75.50
2023-06-04T04:15:14.920Z,72.60
2023-06-04T04:17:44.197Z,72.30
2023-06-04T04:20:12.656Z,72.50
2023-06-04T04:22:48.592Z,72.50
2023-06-04T04:25:18.841Z,74.00
2023-06-04T04:27:46.543Z,75.40
2023-06-04T04:30:14.887Z,78.10
2023-06-04T04:32:50.169Z,78.40
2023-06-04T04:35:25.038Z,80.80
2023-06-04T04:37:55.541Z,82.70
2023-06-04T04:40:24.494Z,83.90
2023-06-04T04:42:53.496Z,82.20
2023-06-04T04:45:22.210Z,84.00
2023-06-04T04:47:52.598Z,85.40
2023-06-04T04:50:20.557Z,86.20
2023-06-04T04:52:48.336Z,86.10
2023-06-04T04:55:17.387Z,85.00
2023-06-04T04:57:47.564Z,84.30
2023-06-04T05:00:17.022Z,84.50
2023-06-04T05:02:46.741Z,85.50
2023-06-04T05:05:15.089Z,85.60
2023-06-04T05:07:44.620Z,88.60
2023-06-04T05:10:14.041Z,88.10
2023-06-04T05:12:53.147Z,86.90
2023-06-04T05:15:21.957Z,87.70
2023-06-04T05:17:53.916Z,89.20
2023-06-04T05:20:24.052Z,86.30
2023-06-04T05:22:52.910Z,83.60
2023-06-04T05:25:22.859Z,85.10
2023-06-04T05:27:51.343Z,82.60
2023-06-04T05:30:20.968Z,83.70
2023-06-04T05:32:51.886Z,84.30
2023-06-04T05:35:23.502Z,81.80
2023-06-04T05:37:55.240Z,76.80
2023-06-04T05:40:27.313Z,76.10
2023-06-04T05:42:55.719Z,75.90
2023-06-04T05:45:23.492Z,75.50
2023-06-04T05:47:54.664Z,79.10
2023-06-04T05:50:22.691Z,78.30
2023-06-04T05:52:50.501Z,76.00
2023-06-04T05:55:18.465Z,77.70
2023-06-04T05:57:46.278Z,77.60
2023-06-04T06:00:14.864Z,80.20
2023-06-04T06:02:42.782Z,78.30
2023-06-04T06:05:23.041Z,78.70
2023-06-04T06:07:51.241Z,79.50
2023-06-04T06:10:19.108Z,80.50
2023-06-04T06:12:47.132Z,79.70
2023-06-04T06:15:14.831Z,80.80
2023-06-04T06:17:44.372Z,78.90
2023-06-04T06:20:13.084Z,80.10
2023-06-04T06:22:40.952Z,78.10
2023-06-04T06:25:09.878Z,79.80
2023-06-04T06:27:44.276Z,78.70
2023-06-04T06:30:14.286Z,79.20
2023-06-04T06:32:42.203Z,79.40
2023-06-04T06:35:10.157Z,80.00
2023-06-04T06:37:43.041Z,76.70
2023-06-04T06:40:11.885Z,76.30
2023-06-04T06:42:39.767Z,75.40
2023-06-04T06:45:07.983Z,75.50
2023-06-04T06:47:35.881Z,75.50
2023-06-04T06:50:04.070Z,73.90
2023-06-04T06:52:34.395Z,75.30
2023-06-04T06:55:03.370Z,75.10
2023-06-04T06:57:31.807Z,75.70
2023-06-04T06:59:59.565Z,74.80
2023-06-04T07:02:27.462Z,75.70
2023-06-04T07:04:55.256Z,75.90
2023-06-04T07:07:22.935Z,76.20
2023-06-04T07:09:51.427Z,76.90
2023-06-04T07:12:19.178Z,76.90
2023-06-04T07:14:47.052Z,71.40
2023-06-04T07:17:14.751Z,74.00
2023-06-04T07:19:42.704Z,74.20
2023-06-04T07:22:11.709Z,70.50
2023-06-04T07:24:39.386Z,74.30
2023-06-04T07:27:16.866Z,76.80
2023-06-04T07:29:48.166Z,77.60
2023-06-04T07:32:16.044Z,75.00
2023-06-04T07:34:43.863Z,76.20
2023-06-04T07:37:11.688Z,75.20
2023-06-04T07:39:40.289Z,74.80
2023-06-04T07:42:10.712Z,73.20
2023-06-04T07:44:39.550Z,73.90
2023-06-04T07:47:07.428Z,73.80
2023-06-04T07:49:35.149Z,76.00
2023-06-04T07:52:02.877Z,73.00
2023-06-04T07:54:30.563Z,71.60
2023-06-04T07:56:58.693Z,71.00
2023-06-04T07:59:26.388Z,73.10
2023-06-04T08:01:54.196Z,70.70
2023-06-04T08:04:22.283Z,71.30
2023-06-04T08:06:51.236Z,70.30
2023-06-04T08:09:19.525Z,69.70
2023-06-04T08:11:47.288Z,70.00
2023-06-04T08:14:15.211Z,71.80
2023-06-04T08:16:43.498Z,68.10
2023-06-04T08:19:24.847Z,67.60
2023-06-04T08:21:59.412Z,66.10
2023-06-04T08:24:40.839Z,65.10
2023-06-04T08:27:19.222Z,67.30
2023-06-04T08:29:56.957Z,64.20
2023-06-04T08:32:45.044Z,64.20
2023-06-04T08:35:19.667Z,65.40
2023-06-04T08:37:47.399Z,66.10
2023-06-04T08:40:15.205Z,63.20
2023-06-04T08:42:46.002Z,64.60
2023-06-04T08:45:15.480Z,64.30
2023-06-04T08:47:46.654Z,65.60
2023-06-04T08:50:18.608Z,66.20
2023-06-04T08:52:47.127Z,64.80
2023-06-04T08:55:15.540Z,68.30
2023-06-04T08:57:45.422Z,66.40
2023-06-04T09:00:13.902Z,67.00
2023-06-04T09:02:42.056Z,62.10
2023-06-04T09:05:10.642Z,65.30
2023-06-04T09:07:41.345Z,63.30
2023-06-04T09:10:13.383Z,66.20
2023-06-04T09:12:45.448Z,67.00
2023-06-04T09:15:13.474Z,61.90
2023-06-04T09:17:41.215Z,63.20
2023-06-04T09:20:12.100Z,64.90
2023-06-04T09:22:39.811Z,65.30
2023-06-04T09:25:19.877Z,64.20
2023-06-04T09:27:47.590Z,60.80
2023-06-04T09:30:15.418Z,63.10
2023-06-04T09:32:43.597Z,66.30
2023-06-04T09:35:20.868Z,64.70
2023-06-04T09:37:57.248Z,60.90
2023-06-04T09:40:35.941Z,60.40
2023-06-04T09:43:04.425Z,65.20
2023-06-04T09:45:33.725Z,64.70
2023-06-04T09:48:02.639Z,66.60
2023-06-04T09:50:43.051Z,64.80
2023-06-04T09:53:27.361Z,64.10
2023-06-04T09:56:02.987Z,60.50
2023-06-04T09:58:31.601Z,63.10
2023-06-04T10:01:01.542Z,61.20
2023-06-04T10:03:37.263Z,62.00
2023-06-04T10:06:24.595Z,62.00
2023-06-04T10:08:53.172Z,60.10
2023-06-04T10:11:28.369Z,59.00
2023-06-04T10:14:03.699Z,60.20
2023-06-04T10:16:35.053Z,61.20
2023-06-04T10:19:05.866Z,57.00
2023-06-04T10:21:36.446Z,61.90
2023-06-04T10:24:05.056Z,61.00
2023-06-04T10:26:36.494Z,60.00
2023-06-04T10:29:06.849Z,56.90
2023-06-04T10:31:36.308Z,57.90
2023-06-04T10:34:04.506Z,61.20
2023-06-04T10:36:32.329Z,59.20
2023-06-04T10:39:00.655Z,54.60
2023-06-04T10:41:28.574Z,58.60
2023-06-04T10:44:02.801Z,58.80
2023-06-04T10:46:42.203Z,60.00
2023-06-04T10:49:12.837Z,56.30
2023-06-04T10:51:40.664Z,59.30
2023-06-04T10:54:08.468Z,58.10
2023-06-04T10:56:37.884Z,58.20
2023-06-04T10:59:16.414Z,61.70
2023-06-04T11:01:45.108Z,58.10
2023-06-04T11:04:26.511Z,56.80
2023-06-04T11:07:04.812Z,57.80
2023-06-04T11:09:35.297Z,57.40
2023-06-04T11:12:05.668Z,54.70
2023-06-04T11:14:33.441Z,56.70
2023-06-04T11:17:15.038Z,53.60
2023-06-04T11:19:42.850Z,54.90
2023-06-04T11:22:13.813Z,55.10
2023-06-04T11:24:42.076Z,54.90
2023-06-04T11:27:15.258Z,56.20
2023-06-04T11:29:52.252Z,57.10
2023-06-04T11:32:24.635Z,56.90
2023-06-04T11:34:52.876Z,55.20
2023-06-04T11:37:20.542Z,57.20
2023-06-04T11:39:48.338Z,57.70
2023-06-04T11:42:16.459Z,55.40
2023-06-04T11:44:49.521Z,55.60
2023-06-04T11:47:17.287Z,54.30
2023-06-04T11:49:45.158Z,55.50
2023-06-04T11:52:13.549Z,54.30
2023-06-04T11:54:42.073Z,55.20
2023-06-04T11:57:09.823Z,56.80
2023-06-04T11:59:37.969Z,60.00
2023-06-04T12:02:08.028Z,57.50
2023-06-04T12:04:36.018Z,56.10
2023-06-04T12:07:06.814Z,57.30
2023-06-04T12:09:43.094Z,57.50
2023-06-04T12:12:22.309Z,58.00
2023-06-04T12:14:58.204Z,57.40
2023-06-04T12:17:26.012Z,57.80
2023-06-04T12:19:54.138Z,57.10
2023-06-04T12:22:22.277Z,57.40
2023-06-04T12:24:57.268Z,56.30
2023-06-04T12:27:29.109Z,58.70
2023-06-04T12:29:57.041Z,58.80
2023-06-04T12:32:24.664Z,56.60
2023-06-04T12:34:52.959Z,59.40
2023-06-04T12:37:21.652Z,57.50
2023-06-04T12:39:49.392Z,59.20
2023-06-04T12:42:17.199Z,61.50
2023-06-04T12:44:44.956Z,58.30
2023-06-04T12:47:12.838Z,60.10
2023-06-04T12:49:40.959Z,58.60
2023-06-04T12:52:08.716Z,58.60
2023-06-04T12:54:36.531Z,58.00
2023-06-04T12:57:04.334Z,58.60
2023-06-04T12:59:32.041Z,62.00
2023-06-04T13:01:59.821Z,56.20
2023-06-04T13:04:27.700Z,57.70
2023-06-04T13:07:00.513Z,56.20
2023-06-04T13:09:33.497Z,56.40
2023-06-04T13:12:01.164Z,56.30
2023-06-04T13:14:31.385Z,57.60
2023-06-04T13:17:02.153Z,57.00
2023-06-04T13:19:37.000Z,57.40
2023-06-04T13:22:04.915Z,60.20
2023-06-04T13:24:32.722Z,59.20
2023-06-04T13:27:00.631Z,60.10
2023-06-04T13:29:28.518Z,57.70
2023-06-04T13:31:56.252Z,59.40
2023-06-04T13:34:27.622Z,61.70
2023-06-04T13:36:56.693Z,58.70
2023-06-04T13:39:24.423Z,59.50
2023-06-04T13:41:52.161Z,58.60
2023-06-04T13:44:38.201Z,61.10
2023-06-04T13:47:06.164Z,59.40
2023-06-04T13:49:35.240Z,61.50
2023-06-04T13:52:03.275Z,58.70
2023-06-04T13:54:31.033Z,58.50
2023-06-04T13:56:58.822Z,57.60
2023-06-04T13:59:26.568Z,56.40
2023-06-04T14:01:54.226Z,59.10
2023-06-04T14:04:22.318Z,59.50
2023-06-04T14:06:50.021Z,62.60
2023-06-04T14:09:17.697Z,61.30
2023-06-04T14:11:48.470Z,61.70
2023-06-04T14:14:18.641Z,59.50
2023-06-04T14:16:47.413Z,60.80
2023-06-04T14:19:16.072Z,57.80
2023-06-04T14:21:45.321Z,62.30
2023-06-04T14:24:13.096Z,60.50
2023-06-04T14:26:40.796Z,58.10
2023-06-04T14:29:08.478Z,58.10
2023-06-04T14:31:36.141Z,57.40
2023-06-04T14:34:04.584Z,58.40
2023-06-04T14:36:32.589Z,61.00
2023-06-04T14:39:00.292Z,59.80
2023-06-04T14:41:31.625Z,60.90
2023-06-04T14:43:59.544Z,59.60
2023-06-04T14:46:27.639Z,58.40
2023-06-04T14:48:55.456Z,57.70
2023-06-04T14:51:25.979Z,59.00
2023-06-04T14:53:53.818Z,60.90
2023-06-04T14:56:21.456Z,63.00
2023-06-04T14:58:49.220Z,65.40
2023-06-04T15:01:17.964Z,60.90
2023-06-04T15:03:45.848Z,63.50
2023-06-04T15:06:19.405Z,61.30
2023-06-04T15:08:48.183Z,63.00
2023-06-04T15:11:16.751Z,63.90
2023-06-04T15:13:44.817Z,60.70
2023-06-04T15:16:12.599Z,64.00
2023-06-04T15:18:40.710Z,63.40
2023-06-04T15:21:09.530Z,66.30
2023-06-04T15:23:38.879Z,64.30
2023-06-04T15:26:06.550Z,64.30
2023-06-04T15:28:34.282Z,64.40
2023-06-04T15:31:02.163Z,66.40
2023-06-04T15:33:29.903Z,67.10
2023-06-04T15:35:57.722Z,68.40
2023-06-04T15:38:26.325Z,68.30
2023-06-04T15:40:54.116Z,68.90
2023-06-04T15:43:21.833Z,69.40
2023-06-04T15:45:49.726Z,68.60
2023-06-04T15:48:17.544Z,68.60
2023-06-04T15:50:45.398Z,66.30
2023-06-04T15:53:13.126Z,65.40
2023-06-04T15:55:40.792Z,65.00
2023-06-04T15:58:08.474Z,65.50
2023-06-04T16:00:36.242Z,66.20
2023-06-04T16:03:04.213Z,66.30
2023-06-04T16:05:31.910Z,67.30
2023-06-04T16:07:59.594Z,67.40
2023-06-04T16:10:27.288Z,68.10
2023-06-04T16:12:55.763Z,67.80
2023-06-04T16:15:23.571Z,68.90
2023-06-04T16:17:51.509Z,68.70
2023-06-04T16:20:20.227Z,68.30
2023-06-04T16:22:49.368Z,68.80
2023-06-04T16:25:18.680Z,68.60
2023-06-04T16:27:47.607Z,68.00
2023-06-04T16:30:15.615Z,69.50
2023-06-04T16:32:43.546Z,69.60
2023-06-04T16:35:12.107Z,70.00
2023-06-04T16:37:39.848Z,69.40
2023-06-04T16:40:08.963Z,68.80
2023-06-04T16:42:37.687Z,69.10
2023-06-04T16:45:05.965Z,69.40
2023-06-04T16:47:36.105Z,68.70
2023-06-04T16:50:05.529Z,69.70
2023-06-04T16:52:33.383Z,70.30
2023-06-04T16:55:01.521Z,70.00
2023-06-04T16:57:29.166Z,70.20
2023-06-04T16:59:56.829Z,71.10
2023-06-04T17:02:24.592Z,71.50
2023-06-04T17:04:52.559Z,71.80
2023-06-04T17:07:20.268Z,73.20
2023-06-04T17:09:48.804Z,74.20
2023-06-04T17:12:17.297Z,76.00
2023-06-04T17:14:47.905Z,78.00
2023-06-04T17:17:15.903Z,79.30
2023-06-04T17:19:45.576Z,80.90
2023-06-04T17:22:13.244Z,82.20
2023-06-04T17:24:41.143Z,83.00
2023-06-04T17:27:09.451Z,83.30
2023-06-04T17:29:37.708Z,83.10
2023-06-04T17:32:05.960Z,83.40
2023-06-04T17:34:33.643Z,84.50
2023-06-04T17:37:03.767Z,85.20
2023-06-04T17:39:33.700Z,85.20
2023-06-04T17:42:01.895Z,86.30
2023-06-04T17:44:29.584Z,86.70
2023-06-04T17:46:57.410Z,87.10
2023-06-04T17:49:25.353Z,87.20
2023-06-04T17:51:53.017Z,86.30
2023-06-04T17:54:20.792Z,85.40
2023-06-04T17:56:48.503Z,84.80
2023-06-04T17:59:16.355Z,84.40
2023-06-04T18:01:44.067Z,85.30
2023-06-04T18:04:11.833Z,85.00
2023-06-04T18:06:39.559Z,84.40
2023-06-04T18:09:07.475Z,83.90
2023-06-04T18:11:35.639Z,84.60
2023-06-04T18:14:06.130Z,84.10
2023-06-04T18:16:34.055Z,85.60
2023-06-04T18:19:01.768Z,85.40
2023-06-04T18:21:29.449Z,84.80
2023-06-04T18:23:57.994Z,83.90
2023-06-04T18:26:26.715Z,84.60
2023-06-04T18:28:54.502Z,84.60
2023-06-04T18:31:22.142Z,84.00
2023-06-04T18:33:54.087Z,84.50
2023-06-04T18:36:21.800Z,85.00
2023-06-04T18:38:49.661Z,84.70
2023-06-04T18:41:17.457Z,86.30
2023-06-04T18:43:45.366Z,87.00
2023-06-04T18:46:13.423Z,87.20
2023-06-04T18:48:41.715Z,87.80
2023-06-04T18:51:09.486Z,88.60
2023-06-04T18:53:37.524Z,89.30
2023-06-04T18:56:05.560Z,89.30
2023-06-04T18:58:33.748Z,89.50
2023-06-04T19:01:01.593Z,89.80
2023-06-04T19:03:29.486Z,89.90
2023-06-04T19:05:58.082Z,90.00
2023-06-04T19:08:25.810Z,89.00
2023-06-04T19:10:53.814Z,88.30
2023-06-04T19:13:21.619Z,90.10
2023-06-04T19:15:53.902Z,88.80
2023-06-04T19:18:22.706Z,89.10
2023-06-04T19:20:50.865Z,87.30
2023-06-04T19:23:19.495Z,86.60
2023-06-04T19:25:47.522Z,86.10
2023-06-04T19:28:17.785Z,85.60
2023-06-04T19:30:46.597Z,85.20
2023-06-04T19:33:14.629Z,85.50
2023-06-04T19:35:42.640Z,85.10
2023-06-04T19:38:11.692Z,84.80
2023-06-04T19:40:39.748Z,85.10
2023-06-04T19:43:08.352Z,85.70
2023-06-04T19:45:36.892Z,86.90
2023-06-04T19:48:04.944Z,87.00
2023-06-04T19:50:33.013Z,87.80
2023-06-04T19:53:01.157Z,88.00
2023-06-04T19:55:29.278Z,88.20
2023-06-04T19:57:57.653Z,88.00
2023-06-04T20:00:26.184Z,89.50
2023-06-04T20:02:54.017Z,90.70
2023-06-04T20:05:22.269Z,91.00
2023-06-04T20:07:50.206Z,91.20
2023-06-04T20:10:19.650Z,91.10
2023-06-04T20:12:47.483Z,91.90
2023-06-04T20:15:15.327Z,92.00
2023-06-04T20:17:43.119Z,92.00
2023-06-04T20:20:11.434Z,91.60
2023-06-04T20:22:39.429Z,91.60
2023-06-04T20:25:08.221Z,91.50
2023-06-04T20:27:38.445Z,91.50
2023-06-04T20:30:07.194Z,91.30
2023-06-04T20:32:35.162Z,91.10
2023-06-04T20:35:03.886Z,90.90
2023-06-04T20:37:31.960Z,90.80
2023-06-04T20:40:00.327Z,90.60
2023-06-04T20:42:28.118Z,90.60
2023-06-04T20:44:55.939Z,90.90
2023-06-04T20:47:23.878Z,90.80
2023-06-04T20:49:51.803Z,90.90
2023-06-04T20:52:19.545Z,90.70
2023-06-04T20:54:47.285Z,90.60
2023-06-04T20:57:15.260Z,91.20
2023-06-04T20:59:42.998Z,91.00
2023-06-04T21:02:10.782Z,90.70
2023-06-04T21:04:39.932Z,90.80
2023-06-04T21:07:07.910Z,90.90
2023-06-04T21:09:35.827Z,90.90
2023-06-04T21:12:04.352Z,91.10
2023-06-04T21:14:32.139Z,90.90
2023-06-04T21:16:59.970Z,91.20
2023-06-04T21:19:29.717Z,90.90
2023-06-04T21:21:58.280Z,91.10
2023-06-04T21:24:26.229Z,91.00
2023-06-04T21:26:53.966Z,91.20
2023-06-04T21:29:21.642Z,91.00
2023-06-04T21:31:49.365Z,90.60
2023-06-04T21:34:17.138Z,91.60
2023-06-04T21:36:44.901Z,92.70
2023-06-04T21:39:12.796Z,93.10
2023-06-04T21:41:40.791Z,93.60
2023-06-04T21:44:08.595Z,93.80
2023-06-04T21:46:36.935Z,94.20
2023-06-04T21:49:04.756Z,94.00
2023-06-04T21:51:32.673Z,94.80
2023-06-04T21:54:00.829Z,94.50
2023-06-04T21:56:28.558Z,94.70
2023-06-04T21:58:56.716Z,95.90
2023-06-04T22:01:24.541Z,95.10
2023-06-04T22:03:52.709Z,96.40
2023-06-04T22:06:21.239Z,95.80
2023-06-04T22:08:49.755Z,95.70
2023-06-04T22:11:18.555Z,94.40
2023-06-04T22:13:46.290Z,95.30
2023-06-04T22:16:14.195Z,95.00
2023-06-04T22:21:16.244Z,94.30
2023-06-04T22:23:44.380Z,95.00
2023-06-04T22:26:18.351Z,96.10
2023-06-04T22:28:49.593Z,95.80
2023-06-04T22:31:17.722Z,95.90
2023-06-04T22:33:45.582Z,95.40
2023-06-04T22:36:13.548Z,95.90
2023-06-04T22:38:41.213Z,96.50
2023-06-04T22:41:09.717Z,96.80
2023-06-04T22:43:38.027Z,96.70
2023-06-04T22:46:05.918Z,97.10
2023-06-04T22:48:33.642Z,96.80
2023-06-04T22:51:03.011Z,97.00
2023-06-04T22:53:30.831Z,97.30
2023-06-04T22:56:00.219Z,97.00
2023-06-04T22:58:28.202Z,97.70
2023-06-04T23:00:55.955Z,97.40
2023-06-04T23:03:26.632Z,97.20
2023-06-04T23:05:54.984Z,97.00
2023-06-04T23:08:23.323Z,96.60
2023-06-04T23:10:51.565Z,96.50
2023-06-04T23:13:19.694Z,96.60
2023-06-04T23:15:47.426Z,97.30
2023-06-04T23:18:15.577Z,97.60
2023-06-04T23:20:43.376Z,98.10
2023-06-04T23:23:11.732Z,98.40
2023-06-04T23:25:39.477Z,98.90
2023-06-04T23:28:07.405Z,99.20
2023-06-04T23:30:35.461Z,98.50
2023-06-04T23:33:04.072Z,98.50
2023-06-04T23:35:31.895Z,98.30
2023-06-04T23:37:59.538Z,98.40
2023-06-04T23:40:27.308Z,98.40
2023-06-04T23:42:55.056Z,97.70
2023-06-04T23:45:22.767Z,97.60
2023-06-04T23:47:50.509Z,97.60
2023-06-04T23:50:18.246Z,97.70
2023-06-04T23:52:46.025Z,98.60
2023-06-04T23:55:13.759Z,98.70
2023-06-04T23:57:41.546Z,99.30
